sensor_id;sensor_type;location;lat;lon;timestamp;P1;durP1;ratioP1;P2;durP2;ratioP2
10309;SDS011;5200;43.236;27.986;2023-03-05T00:01:21;11.30;;;6.43;;
10309;SDS011;5200;43.236;27.986;2023-03-05T00:03:50;9.77;;;5.97;;
10309;SDS011;5200;43.236;27.986;2023-03-05T00:06:18;10.80;;;6.47;;
10309;SDS011;5200;43.236;27.986;2023-03-05T00:08:45;10.75;;;6.45;;
10309;SDS011;5200;43.236;27.986;2023-03-05T00:11:13;9.43;;;6.88;;
10309;SDS011;5200;43.236;27.986;2023-03-05T00:13:39;10.80;;;6.95;;
10309;SDS011;5200;43.236;27.986;2023-03-05T00:16:08;10.00;;;6.18;;
10309;SDS011;5200;43.236;27.986;2023-03-05T00:18:37;14.13;;;7.18;;
10309;SDS011;5200;43.236;27.986;2023-03-05T00:21:04;12.55;;;7.70;;
10309;SDS011;5200;43.236;27.986;2023-03-05T00:23:31;10.75;;;7.50;;
10309;SDS011;5200;43.236;27.986;2023-03-05T00:25:59;10.93;;;7.55;;
10309;SDS011;5200;43.236;27.986;2023-03-05T00:28:27;9.10;;;7.07;;
10309;SDS011;5200;43.236;27.986;2023-03-05T00:30:57;9.27;;;6.85;;
10309;SDS011;5200;43.236;27.986;2023-03-05T00:33:26;11.80;;;7.50;;
10309;SDS011;5200;43.236;27.986;2023-03-05T00:35:53;12.77;;;7.40;;
10309;SDS011;5200;43.236;27.986;2023-03-05T00:38:20;15.13;;;7.25;;
10309;SDS011;5200;43.236;27.986;2023-03-05T00:40:48;16.42;;;8.18;;
10309;SDS011;5200;43.236;27.986;2023-03-05T00:43:16;12.15;;;8.02;;
10309;SDS011;5200;43.236;27.986;2023-03-05T00:45:42;11.32;;;8.20;;
10309;SDS011;5200;43.236;27.986;2023-03-05T00:48:09;13.90;;;8.48;;
10309;SDS011;5200;43.236;27.986;2023-03-05T00:50:37;15.25;;;7.72;;
10309;SDS011;5200;43.236;27.986;2023-03-05T00:53:04;10.80;;;8.32;;
10309;SDS011;5200;43.236;27.986;2023-03-05T00:55:31;11.95;;;8.25;;
10309;SDS011;5200;43.236;27.986;2023-03-05T00:58:00;12.13;;;8.35;;
10309;SDS011;5200;43.236;27.986;2023-03-05T01:00:27;13.32;;;7.45;;
10309;SDS011;5200;43.236;27.986;2023-03-05T01:02:53;12.23;;;7.97;;
10309;SDS011;5200;43.236;27.986;2023-03-05T01:05:20;14.82;;;9.07;;
10309;SDS011;5200;43.236;27.986;2023-03-05T01:07:48;12.68;;;8.30;;
10309;SDS011;5200;43.236;27.986;2023-03-05T01:10:17;11.43;;;8.00;;
10309;SDS011;5200;43.236;27.986;2023-03-05T01:12:45;13.52;;;8.10;;
10309;SDS011;5200;43.236;27.986;2023-03-05T01:15:12;18.42;;;8.57;;
10309;SDS011;5200;43.236;27.986;2023-03-05T01:17:38;17.95;;;9.07;;
10309;SDS011;5200;43.236;27.986;2023-03-05T01:20:06;14.13;;;8.35;;
10309;SDS011;5200;43.236;27.986;2023-03-05T01:22:33;15.52;;;8.50;;
10309;SDS011;5200;43.236;27.986;2023-03-05T01:25:02;18.67;;;9.98;;
10309;SDS011;5200;43.236;27.986;2023-03-05T01:27:29;16.08;;;10.35;;
10309;SDS011;5200;43.236;27.986;2023-03-05T01:29:55;19.92;;;9.88;;
10309;SDS011;5200;43.236;27.986;2023-03-05T01:32:22;16.65;;;10.10;;
10309;SDS011;5200;43.236;27.986;2023-03-05T01:34:49;12.25;;;9.20;;
10309;SDS011;5200;43.236;27.986;2023-03-05T01:37:16;17.65;;;10.45;;
10309;SDS011;5200;43.236;27.986;2023-03-05T01:39:43;14.57;;;11.00;;
10309;SDS011;5200;43.236;27.986;2023-03-05T01:42:11;20.98;;;9.88;;
10309;SDS011;5200;43.236;27.986;2023-03-05T01:44:38;16.73;;;10.00;;
10309;SDS011;5200;43.236;27.986;2023-03-05T01:47:05;12.85;;;9.43;;
10309;SDS011;5200;43.236;27.986;2023-03-05T01:49:32;14.18;;;10.25;;
10309;SDS011;5200;43.236;27.986;2023-03-05T01:52:03;14.57;;;9.90;;
10309;SDS011;5200;43.236;27.986;2023-03-05T01:54:35;17.95;;;10.98;;
10309;SDS011;5200;43.236;27.986;2023-03-05T01:57:06;16.67;;;10.63;;
10309;SDS011;5200;43.236;27.986;2023-03-05T01:59:37;19.70;;;10.68;;
10309;SDS011;5200;43.236;27.986;2023-03-05T02:02:07;15.45;;;10.32;;
10309;SDS011;5200;43.236;27.986;2023-03-05T02:04:35;19.38;;;9.88;;
10309;SDS011;5200;43.236;27.986;2023-03-05T02:07:08;15.60;;;9.43;;
10309;SDS011;5200;43.236;27.986;2023-03-05T02:09:37;18.60;;;11.15;;
10309;SDS011;5200;43.236;27.986;2023-03-05T02:12:05;15.10;;;9.90;;
10309;SDS011;5200;43.236;27.986;2023-03-05T02:14:33;17.33;;;11.32;;
10309;SDS011;5200;43.236;27.986;2023-03-05T02:17:02;25.52;;;11.80;;
10309;SDS011;5200;43.236;27.986;2023-03-05T02:19:29;15.35;;;10.82;;
10309;SDS011;5200;43.236;27.986;2023-03-05T02:22:14;19.90;;;10.60;;
10309;SDS011;5200;43.236;27.986;2023-03-05T02:24:42;22.55;;;10.88;;
10309;SDS011;5200;43.236;27.986;2023-03-05T02:27:09;17.42;;;11.57;;
10309;SDS011;5200;43.236;27.986;2023-03-05T02:29:38;15.20;;;10.18;;
10309;SDS011;5200;43.236;27.986;2023-03-05T02:32:08;15.75;;;11.27;;
10309;SDS011;5200;43.236;27.986;2023-03-05T02:34:35;17.00;;;10.18;;
10309;SDS011;5200;43.236;27.986;2023-03-05T02:37:02;20.30;;;10.55;;
10309;SDS011;5200;43.236;27.986;2023-03-05T02:39:34;16.25;;;10.50;;
10309;SDS011;5200;43.236;27.986;2023-03-05T02:42:01;16.40;;;11.15;;
10309;SDS011;5200;43.236;27.986;2023-03-05T02:44:28;20.40;;;10.75;;
10309;SDS011;5200;43.236;27.986;2023-03-05T02:46:55;18.42;;;11.05;;
10309;SDS011;5200;43.236;27.986;2023-03-05T02:49:22;17.52;;;10.80;;
10309;SDS011;5200;43.236;27.986;2023-03-05T02:51:49;18.70;;;10.85;;
10309;SDS011;5200;43.236;27.986;2023-03-05T02:54:16;19.63;;;10.80;;
10309;SDS011;5200;43.236;27.986;2023-03-05T02:56:44;19.98;;;11.70;;
10309;SDS011;5200;43.236;27.986;2023-03-05T02:59:11;15.82;;;11.27;;
10309;SDS011;5200;43.236;27.986;2023-03-05T03:01:37;20.00;;;11.90;;
10309;SDS011;5200;43.236;27.986;2023-03-05T03:04:04;23.48;;;11.90;;
10309;SDS011;5200;43.236;27.986;2023-03-05T03:06:31;19.05;;;11.30;;
10309;SDS011;5200;43.236;27.986;2023-03-05T03:08:58;18.35;;;10.50;;
10309;SDS011;5200;43.236;27.986;2023-03-05T03:11:24;24.67;;;11.98;;
10309;SDS011;5200;43.236;27.986;2023-03-05T03:13:53;16.13;;;10.75;;
10309;SDS011;5200;43.236;27.986;2023-03-05T03:16:19;19.35;;;11.60;;
10309;SDS011;5200;43.236;27.986;2023-03-05T03:18:46;20.42;;;12.10;;
10309;SDS011;5200;43.236;27.986;2023-03-05T03:21:17;17.85;;;11.10;;
10309;SDS011;5200;43.236;27.986;2023-03-05T03:23:45;16.45;;;10.98;;
10309;SDS011;5200;43.236;27.986;2023-03-05T03:26:12;17.48;;;11.10;;
10309;SDS011;5200;43.236;27.986;2023-03-05T03:28:39;17.05;;;11.60;;
10309;SDS011;5200;43.236;27.986;2023-03-05T03:31:07;17.95;;;11.32;;
10309;SDS011;5200;43.236;27.986;2023-03-05T03:33:34;19.75;;;10.35;;
10309;SDS011;5200;43.236;27.986;2023-03-05T03:36:01;19.55;;;11.40;;
10309;SDS011;5200;43.236;27.986;2023-03-05T03:38:29;17.35;;;10.73;;
10309;SDS011;5200;43.236;27.986;2023-03-05T03:40:56;17.67;;;10.63;;
10309;SDS011;5200;43.236;27.986;2023-03-05T03:43:22;22.95;;;12.05;;
10309;SDS011;5200;43.236;27.986;2023-03-05T03:45:49;23.10;;;11.60;;
10309;SDS011;5200;43.236;27.986;2023-03-05T03:48:18;23.98;;;11.88;;
10309;SDS011;5200;43.236;27.986;2023-03-05T03:50:45;19.02;;;11.30;;
10309;SDS011;5200;43.236;27.986;2023-03-05T03:53:11;22.42;;;11.35;;
10309;SDS011;5200;43.236;27.986;2023-03-05T03:55:38;21.73;;;10.82;;
10309;SDS011;5200;43.236;27.986;2023-03-05T03:58:07;22.10;;;11.18;;
10309;SDS011;5200;43.236;27.986;2023-03-05T04:00:34;22.88;;;11.55;;
10309;SDS011;5200;43.236;27.986;2023-03-05T04:03:00;18.30;;;11.90;;
10309;SDS011;5200;43.236;27.986;2023-03-05T04:05:29;19.90;;;12.35;;
10309;SDS011;5200;43.236;27.986;2023-03-05T04:07:55;24.77;;;12.07;;
10309;SDS011;5200;43.236;27.986;2023-03-05T04:10:24;19.50;;;12.30;;
10309;SDS011;5200;43.236;27.986;2023-03-05T04:12:51;21.92;;;13.57;;
10309;SDS011;5200;43.236;27.986;2023-03-05T04:15:18;19.95;;;12.88;;
10309;SDS011;5200;43.236;27.986;2023-03-05T04:17:45;21.30;;;13.13;;
10309;SDS011;5200;43.236;27.986;2023-03-05T04:20:12;22.88;;;13.18;;
10309;SDS011;5200;43.236;27.986;2023-03-05T04:22:40;24.85;;;13.15;;
10309;SDS011;5200;43.236;27.986;2023-03-05T04:25:07;24.00;;;14.50;;
10309;SDS011;5200;43.236;27.986;2023-03-05T04:27:34;25.85;;;13.95;;
10309;SDS011;5200;43.236;27.986;2023-03-05T04:30:04;31.15;;;15.43;;
10309;SDS011;5200;43.236;27.986;2023-03-05T04:32:32;26.20;;;14.00;;
10309;SDS011;5200;43.236;27.986;2023-03-05T04:34:59;31.25;;;16.20;;
10309;SDS011;5200;43.236;27.986;2023-03-05T04:37:25;26.77;;;14.57;;
10309;SDS011;5200;43.236;27.986;2023-03-05T04:39:54;25.02;;;14.70;;
10309;SDS011;5200;43.236;27.986;2023-03-05T04:42:20;29.33;;;14.23;;
10309;SDS011;5200;43.236;27.986;2023-03-05T04:44:47;28.27;;;15.35;;
10309;SDS011;5200;43.236;27.986;2023-03-05T04:47:16;23.38;;;13.90;;
10309;SDS011;5200;43.236;27.986;2023-03-05T04:49:43;24.92;;;14.23;;
10309;SDS011;5200;43.236;27.986;2023-03-05T04:52:10;26.23;;;16.10;;
10309;SDS011;5200;43.236;27.986;2023-03-05T04:54:38;27.38;;;15.55;;
10309;SDS011;5200;43.236;27.986;2023-03-05T04:57:06;29.27;;;15.15;;
10309;SDS011;5200;43.236;27.986;2023-03-05T04:59:34;28.98;;;16.73;;
10309;SDS011;5200;43.236;27.986;2023-03-05T05:02:02;27.42;;;16.30;;
10309;SDS011;5200;43.236;27.986;2023-03-05T05:04:29;23.65;;;14.57;;
10309;SDS011;5200;43.236;27.986;2023-03-05T05:06:56;29.40;;;15.75;;
10309;SDS011;5200;43.236;27.986;2023-03-05T05:09:23;29.42;;;15.85;;
10309;SDS011;5200;43.236;27.986;2023-03-05T05:11:51;26.63;;;15.10;;
10309;SDS011;5200;43.236;27.986;2023-03-05T05:14:19;29.88;;;16.42;;
10309;SDS011;5200;43.236;27.986;2023-03-05T05:16:46;30.30;;;17.15;;
10309;SDS011;5200;43.236;27.986;2023-03-05T05:19:12;24.48;;;15.57;;
10309;SDS011;5200;43.236;27.986;2023-03-05T05:21:39;29.67;;;17.30;;
10309;SDS011;5200;43.236;27.986;2023-03-05T05:24:06;29.00;;;16.40;;
10309;SDS011;5200;43.236;27.986;2023-03-05T05:26:33;31.92;;;15.57;;
10309;SDS011;5200;43.236;27.986;2023-03-05T05:29:00;26.83;;;15.73;;
10309;SDS011;5200;43.236;27.986;2023-03-05T05:31:28;30.23;;;17.00;;
10309;SDS011;5200;43.236;27.986;2023-03-05T05:33:55;35.67;;;18.38;;
10309;SDS011;5200;43.236;27.986;2023-03-05T05:36:22;27.17;;;16.13;;
10309;SDS011;5200;43.236;27.986;2023-03-05T05:38:49;30.00;;;15.82;;
10309;SDS011;5200;43.236;27.986;2023-03-05T05:41:16;28.30;;;16.95;;
10309;SDS011;5200;43.236;27.986;2023-03-05T05:43:44;29.90;;;16.70;;
10309;SDS011;5200;43.236;27.986;2023-03-05T05:46:11;29.23;;;16.85;;
10309;SDS011;5200;43.236;27.986;2023-03-05T05:48:41;29.42;;;16.20;;
10309;SDS011;5200;43.236;27.986;2023-03-05T05:51:09;24.58;;;15.95;;
10309;SDS011;5200;43.236;27.986;2023-03-05T05:53:39;29.98;;;16.98;;
10309;SDS011;5200;43.236;27.986;2023-03-05T05:56:06;26.92;;;15.60;;
10309;SDS011;5200;43.236;27.986;2023-03-05T05:58:34;35.55;;;17.30;;
10309;SDS011;5200;43.236;27.986;2023-03-05T06:01:10;24.35;;;15.60;;
10309;SDS011;5200;43.236;27.986;2023-03-05T06:03:38;30.27;;;15.90;;
10309;SDS011;5200;43.236;27.986;2023-03-05T06:06:08;30.35;;;15.93;;
10309;SDS011;5200;43.236;27.986;2023-03-05T06:08:35;32.70;;;18.63;;
10309;SDS011;5200;43.236;27.986;2023-03-05T06:11:02;32.42;;;19.05;;
10309;SDS011;5200;43.236;27.986;2023-03-05T06:13:29;32.45;;;18.38;;
10309;SDS011;5200;43.236;27.986;2023-03-05T06:15:56;30.83;;;18.38;;
10309;SDS011;5200;43.236;27.986;2023-03-05T06:18:23;27.77;;;16.80;;
10309;SDS011;5200;43.236;27.986;2023-03-05T06:20:53;37.22;;;16.38;;
10309;SDS011;5200;43.236;27.986;2023-03-05T06:23:22;28.70;;;17.90;;
10309;SDS011;5200;43.236;27.986;2023-03-05T06:25:50;25.58;;;15.02;;
10309;SDS011;5200;43.236;27.986;2023-03-05T06:28:18;27.02;;;14.73;;
10309;SDS011;5200;43.236;27.986;2023-03-05T06:30:45;26.95;;;15.02;;
10309;SDS011;5200;43.236;27.986;2023-03-05T06:33:12;24.92;;;17.35;;
10309;SDS011;5200;43.236;27.986;2023-03-05T06:35:39;32.00;;;19.90;;
10309;SDS011;5200;43.236;27.986;2023-03-05T06:38:06;30.83;;;19.50;;
10309;SDS011;5200;43.236;27.986;2023-03-05T06:40:37;37.03;;;20.30;;
10309;SDS011;5200;43.236;27.986;2023-03-05T06:43:04;32.28;;;21.23;;
10309;SDS011;5200;43.236;27.986;2023-03-05T06:45:31;28.67;;;19.67;;
10309;SDS011;5200;43.236;27.986;2023-03-05T06:47:58;33.97;;;18.45;;
10309;SDS011;5200;43.236;27.986;2023-03-05T06:50:25;37.83;;;20.10;;
10309;SDS011;5200;43.236;27.986;2023-03-05T06:52:51;35.75;;;20.92;;
10309;SDS011;5200;43.236;27.986;2023-03-05T06:55:18;26.60;;;17.15;;
10309;SDS011;5200;43.236;27.986;2023-03-05T06:57:46;34.28;;;19.63;;
10309;SDS011;5200;43.236;27.986;2023-03-05T07:00:13;25.13;;;15.13;;
10309;SDS011;5200;43.236;27.986;2023-03-05T07:02:41;26.48;;;14.95;;
10309;SDS011;5200;43.236;27.986;2023-03-05T07:05:08;29.33;;;14.57;;
10309;SDS011;5200;43.236;27.986;2023-03-05T07:07:35;27.45;;;13.90;;
10309;SDS011;5200;43.236;27.986;2023-03-05T07:10:02;27.20;;;14.55;;
10309;SDS011;5200;43.236;27.986;2023-03-05T07:12:31;24.50;;;13.95;;
10309;SDS011;5200;43.236;27.986;2023-03-05T07:15:00;29.83;;;14.85;;
10309;SDS011;5200;43.236;27.986;2023-03-05T07:17:27;22.73;;;14.30;;
10309;SDS011;5200;43.236;27.986;2023-03-05T07:19:54;24.40;;;13.55;;
10309;SDS011;5200;43.236;27.986;2023-03-05T07:22:20;24.48;;;13.02;;
10309;SDS011;5200;43.236;27.986;2023-03-05T07:24:47;23.50;;;14.32;;
10309;SDS011;5200;43.236;27.986;2023-03-05T07:27:15;22.27;;;12.70;;
10309;SDS011;5200;43.236;27.986;2023-03-05T07:29:41;24.60;;;13.23;;
10309;SDS011;5200;43.236;27.986;2023-03-05T07:32:10;21.75;;;13.45;;
10309;SDS011;5200;43.236;27.986;2023-03-05T07:34:36;21.77;;;12.93;;
10309;SDS011;5200;43.236;27.986;2023-03-05T07:37:03;22.38;;;13.40;;
10309;SDS011;5200;43.236;27.986;2023-03-05T07:39:30;22.98;;;13.40;;
10309;SDS011;5200;43.236;27.986;2023-03-05T07:41:57;21.95;;;13.43;;
10309;SDS011;5200;43.236;27.986;2023-03-05T07:44:24;19.38;;;13.35;;
10309;SDS011;5200;43.236;27.986;2023-03-05T07:46:51;23.52;;;13.18;;
10309;SDS011;5200;43.236;27.986;2023-03-05T07:49:19;20.15;;;11.77;;
10309;SDS011;5200;43.236;27.986;2023-03-05T07:51:47;24.10;;;14.63;;
10309;SDS011;5200;43.236;27.986;2023-03-05T07:54:14;24.85;;;13.43;;
10309;SDS011;5200;43.236;27.986;2023-03-05T07:56:41;23.27;;;12.82;;
10309;SDS011;5200;43.236;27.986;2023-03-05T07:59:09;21.30;;;13.35;;
10309;SDS011;5200;43.236;27.986;2023-03-05T08:01:38;20.08;;;12.98;;
10309;SDS011;5200;43.236;27.986;2023-03-05T08:04:05;18.38;;;12.80;;
10309;SDS011;5200;43.236;27.986;2023-03-05T08:06:37;18.27;;;12.18;;
10309;SDS011;5200;43.236;27.986;2023-03-05T08:09:04;20.23;;;12.35;;
10309;SDS011;5200;43.236;27.986;2023-03-05T08:11:31;18.90;;;12.60;;
10309;SDS011;5200;43.236;27.986;2023-03-05T08:13:58;16.92;;;11.18;;
10309;SDS011;5200;43.236;27.986;2023-03-05T08:16:25;18.45;;;11.43;;
10309;SDS011;5200;43.236;27.986;2023-03-05T08:18:53;19.38;;;12.10;;
10309;SDS011;5200;43.236;27.986;2023-03-05T08:21:21;21.88;;;12.32;;
10309;SDS011;5200;43.236;27.986;2023-03-05T08:23:52;17.90;;;11.68;;
10309;SDS011;5200;43.236;27.986;2023-03-05T08:26:19;20.88;;;12.35;;
10309;SDS011;5200;43.236;27.986;2023-03-05T08:28:48;18.40;;;12.45;;
10309;SDS011;5200;43.236;27.986;2023-03-05T08:31:16;18.92;;;11.80;;
10309;SDS011;5200;43.236;27.986;2023-03-05T08:33:43;19.77;;;12.63;;
10309;SDS011;5200;43.236;27.986;2023-03-05T08:36:10;23.75;;;13.13;;
10309;SDS011;5200;43.236;27.986;2023-03-05T08:38:37;20.48;;;13.45;;
10309;SDS011;5200;43.236;27.986;2023-03-05T08:41:05;17.05;;;12.63;;
10309;SDS011;5200;43.236;27.986;2023-03-05T08:43:32;18.95;;;11.90;;
10309;SDS011;5200;43.236;27.986;2023-03-05T08:45:59;20.05;;;13.93;;
10309;SDS011;5200;43.236;27.986;2023-03-05T08:48:27;19.75;;;12.55;;
10309;SDS011;5200;43.236;27.986;2023-03-05T08:50:56;23.30;;;12.77;;
10309;SDS011;5200;43.236;27.986;2023-03-05T08:53:23;15.90;;;12.45;;
10309;SDS011;5200;43.236;27.986;2023-03-05T08:55:53;14.13;;;10.90;;
10309;SDS011;5200;43.236;27.986;2023-03-05T08:58:23;17.95;;;11.57;;
10309;SDS011;5200;43.236;27.986;2023-03-05T09:00:51;17.45;;;11.45;;
10309;SDS011;5200;43.236;27.986;2023-03-05T09:03:18;18.67;;;11.70;;
10309;SDS011;5200;43.236;27.986;2023-03-05T09:05:45;15.55;;;11.25;;
10309;SDS011;5200;43.236;27.986;2023-03-05T09:08:12;16.77;;;11.15;;
10309;SDS011;5200;43.236;27.986;2023-03-05T09:10:39;19.90;;;12.80;;
10309;SDS011;5200;43.236;27.986;2023-03-05T09:13:06;17.77;;;11.68;;
10309;SDS011;5200;43.236;27.986;2023-03-05T09:15:35;18.27;;;11.77;;
10309;SDS011;5200;43.236;27.986;2023-03-05T09:18:02;17.05;;;11.02;;
10309;SDS011;5200;43.236;27.986;2023-03-05T09:20:29;20.02;;;12.80;;
10309;SDS011;5200;43.236;27.986;2023-03-05T09:22:57;21.05;;;12.63;;
10309;SDS011;5200;43.236;27.986;2023-03-05T09:25:24;17.90;;;11.45;;
10309;SDS011;5200;43.236;27.986;2023-03-05T09:27:51;21.38;;;11.75;;
10309;SDS011;5200;43.236;27.986;2023-03-05T09:30:18;16.40;;;11.27;;
10309;SDS011;5200;43.236;27.986;2023-03-05T09:32:46;16.42;;;11.93;;
10309;SDS011;5200;43.236;27.986;2023-03-05T09:35:15;16.67;;;11.88;;
10309;SDS011;5200;43.236;27.986;2023-03-05T09:37:42;18.77;;;11.57;;
10309;SDS011;5200;43.236;27.986;2023-03-05T09:40:11;17.77;;;11.00;;
10309;SDS011;5200;43.236;27.986;2023-03-05T09:42:44;16.55;;;11.07;;
10309;SDS011;5200;43.236;27.986;2023-03-05T09:45:25;24.65;;;13.43;;
10309;SDS011;5200;43.236;27.986;2023-03-05T09:47:57;19.83;;;11.35;;
10309;SDS011;5200;43.236;27.986;2023-03-05T09:50:35;17.08;;;11.02;;
10309;SDS011;5200;43.236;27.986;2023-03-05T09:53:07;20.77;;;12.50;;
10309;SDS011;5200;43.236;27.986;2023-03-05T09:55:42;20.02;;;13.43;;
10309;SDS011;5200;43.236;27.986;2023-03-05T09:58:11;26.75;;;15.60;;
10309;SDS011;5200;43.236;27.986;2023-03-05T10:00:42;24.00;;;15.20;;
10309;SDS011;5200;43.236;27.986;2023-03-05T10:03:16;26.48;;;14.70;;
10309;SDS011;5200;43.236;27.986;2023-03-05T10:08:45;27.25;;;15.38;;
10309;SDS011;5200;43.236;27.986;2023-03-05T10:11:26;30.83;;;16.35;;
10309;SDS011;5200;43.236;27.986;2023-03-05T10:14:01;28.20;;;16.58;;
10309;SDS011;5200;43.236;27.986;2023-03-05T10:19:22;30.85;;;17.80;;
10309;SDS011;5200;43.236;27.986;2023-03-05T10:22:07;26.33;;;17.55;;
10309;SDS011;5200;43.236;27.986;2023-03-05T10:24:43;27.98;;;16.27;;
10309;SDS011;5200;43.236;27.986;2023-03-05T10:27:20;22.35;;;15.57;;
10309;SDS011;5200;43.236;27.986;2023-03-05T10:30:01;34.15;;;16.75;;
10309;SDS011;5200;43.236;27.986;2023-03-05T10:32:39;22.05;;;14.73;;
10309;SDS011;5200;43.236;27.986;2023-03-05T10:35:27;26.13;;;14.23;;
10309;SDS011;5200;43.236;27.986;2023-03-05T10:38:21;27.05;;;15.38;;
10309;SDS011;5200;43.236;27.986;2023-03-05T10:40:56;26.73;;;16.02;;
10309;SDS011;5200;43.236;27.986;2023-03-05T10:43:30;28.17;;;15.55;;
10309;SDS011;5200;43.236;27.986;2023-03-05T10:46:11;24.88;;;14.48;;
10309;SDS011;5200;43.236;27.986;2023-03-05T10:48:41;29.83;;;18.02;;
10309;SDS011;5200;43.236;27.986;2023-03-05T10:51:16;29.35;;;17.05;;
10309;SDS011;5200;43.236;27.986;2023-03-05T10:53:52;74.88;;;46.90;;
10309;SDS011;5200;43.236;27.986;2023-03-05T10:56:22;35.08;;;20.58;;
10309;SDS011;5200;43.236;27.986;2023-03-05T10:58:50;76.75;;;48.00;;
10309;SDS011;5200;43.236;27.986;2023-03-05T11:01:19;30.85;;;16.17;;
10309;SDS011;5200;43.236;27.986;2023-03-05T11:03:49;27.50;;;14.70;;
10309;SDS011;5200;43.236;27.986;2023-03-05T11:06:31;33.88;;;19.38;;
10309;SDS011;5200;43.236;27.986;2023-03-05T11:09:20;26.40;;;14.70;;
10309;SDS011;5200;43.236;27.986;2023-03-05T11:12:04;24.13;;;16.20;;
10309;SDS011;5200;43.236;27.986;2023-03-05T11:14:40;29.73;;;16.52;;
10309;SDS011;5200;43.236;27.986;2023-03-05T11:17:22;25.60;;;14.77;;
10309;SDS011;5200;43.236;27.986;2023-03-05T11:19:54;23.23;;;14.18;;
10309;SDS011;5200;43.236;27.986;2023-03-05T11:22:22;26.48;;;14.20;;
10309;SDS011;5200;43.236;27.986;2023-03-05T11:25:04;29.00;;;15.13;;
10309;SDS011;5200;43.236;27.986;2023-03-05T11:27:41;30.13;;;15.65;;
10309;SDS011;5200;43.236;27.986;2023-03-05T11:30:19;24.50;;;15.02;;
10309;SDS011;5200;43.236;27.986;2023-03-05T11:32:54;29.52;;;15.57;;
10309;SDS011;5200;43.236;27.986;2023-03-05T11:35:35;24.20;;;15.23;;
10309;SDS011;5200;43.236;27.986;2023-03-05T11:38:05;27.45;;;15.20;;
10309;SDS011;5200;43.236;27.986;2023-03-05T11:40:40;27.52;;;15.07;;
10309;SDS011;5200;43.236;27.986;2023-03-05T11:43:08;29.48;;;16.02;;
10309;SDS011;5200;43.236;27.986;2023-03-05T11:45:40;27.95;;;14.77;;
10309;SDS011;5200;43.236;27.986;2023-03-05T11:48:10;28.92;;;16.65;;
10309;SDS011;5200;43.236;27.986;2023-03-05T11:50:42;26.40;;;15.07;;
10309;SDS011;5200;43.236;27.986;2023-03-05T11:53:15;28.33;;;16.63;;
10309;SDS011;5200;43.236;27.986;2023-03-05T11:55:48;32.08;;;17.25;;
10309;SDS011;5200;43.236;27.986;2023-03-05T11:58:21;27.85;;;15.40;;
10309;SDS011;5200;43.236;27.986;2023-03-05T12:00:53;24.60;;;14.23;;
10309;SDS011;5200;43.236;27.986;2023-03-05T12:03:20;28.92;;;16.17;;
10309;SDS011;5200;43.236;27.986;2023-03-05T12:05:51;28.80;;;16.48;;
10309;SDS011;5200;43.236;27.986;2023-03-05T12:08:23;29.58;;;15.20;;
10309;SDS011;5200;43.236;27.986;2023-03-05T12:10:54;24.80;;;15.00;;
10309;SDS011;5200;43.236;27.986;2023-03-05T12:13:22;30.00;;;16.20;;
10309;SDS011;5200;43.236;27.986;2023-03-05T12:16:11;21.63;;;14.90;;
10309;SDS011;5200;43.236;27.986;2023-03-05T12:18:51;28.05;;;16.08;;
10309;SDS011;5200;43.236;27.986;2023-03-05T12:21:25;31.58;;;15.45;;
10309;SDS011;5200;43.236;27.986;2023-03-05T12:24:00;26.15;;;15.43;;
10309;SDS011;5200;43.236;27.986;2023-03-05T12:29:27;34.78;;;15.85;;
10309;SDS011;5200;43.236;27.986;2023-03-05T12:31:56;30.95;;;15.65;;
10309;SDS011;5200;43.236;27.986;2023-03-05T12:34:44;27.52;;;16.60;;
10309;SDS011;5200;43.236;27.986;2023-03-05T12:40:20;31.25;;;17.05;;
10309;SDS011;5200;43.236;27.986;2023-03-05T12:42:52;24.85;;;15.05;;
10309;SDS011;5200;43.236;27.986;2023-03-05T12:51:11;26.90;;;16.60;;
10309;SDS011;5200;43.236;27.986;2023-03-05T12:53:39;31.50;;;17.88;;
10309;SDS011;5200;43.236;27.986;2023-03-05T12:56:14;30.23;;;16.80;;
10309;SDS011;5200;43.236;27.986;2023-03-05T12:58:45;32.63;;;18.45;;
10309;SDS011;5200;43.236;27.986;2023-03-05T13:01:20;39.53;;;21.80;;
10309;SDS011;5200;43.236;27.986;2023-03-05T13:03:55;30.25;;;18.45;;
10309;SDS011;5200;43.236;27.986;2023-03-05T13:06:26;30.85;;;15.07;;
10309;SDS011;5200;43.236;27.986;2023-03-05T13:08:55;27.35;;;16.80;;
10309;SDS011;5200;43.236;27.986;2023-03-05T13:11:25;31.80;;;18.98;;
10309;SDS011;5200;43.236;27.986;2023-03-05T13:13:55;34.15;;;19.20;;
10309;SDS011;5200;43.236;27.986;2023-03-05T13:16:23;31.83;;;16.95;;
10309;SDS011;5200;43.236;27.986;2023-03-05T13:18:53;31.45;;;17.27;;
10309;SDS011;5200;43.236;27.986;2023-03-05T13:21:23;25.92;;;15.95;;
10309;SDS011;5200;43.236;27.986;2023-03-05T13:23:52;40.28;;;18.65;;
10309;SDS011;5200;43.236;27.986;2023-03-05T13:26:23;26.98;;;15.38;;
10309;SDS011;5200;43.236;27.986;2023-03-05T13:29:08;28.20;;;16.48;;
10309;SDS011;5200;43.236;27.986;2023-03-05T13:31:39;37.15;;;18.25;;
10309;SDS011;5200;43.236;27.986;2023-03-05T13:34:10;34.85;;;18.52;;
10309;SDS011;5200;43.236;27.986;2023-03-05T13:36:44;31.40;;;16.65;;
10309;SDS011;5200;43.236;27.986;2023-03-05T13:39:17;30.52;;;17.48;;
10309;SDS011;5200;43.236;27.986;2023-03-05T13:41:54;48.22;;;28.83;;
10309;SDS011;5200;43.236;27.986;2023-03-05T13:44:24;42.35;;;21.17;;
10309;SDS011;5200;43.236;27.986;2023-03-05T13:46:51;45.40;;;23.05;;
10309;SDS011;5200;43.236;27.986;2023-03-05T13:49:20;50.88;;;28.27;;
10309;SDS011;5200;43.236;27.986;2023-03-05T13:51:48;52.67;;;28.48;;
10309;SDS011;5200;43.236;27.986;2023-03-05T13:54:16;71.40;;;36.03;;
10309;SDS011;5200;43.236;27.986;2023-03-05T13:56:48;45.42;;;21.70;;
10309;SDS011;5200;43.236;27.986;2023-03-05T13:59:21;41.53;;;21.25;;
10309;SDS011;5200;43.236;27.986;2023-03-05T14:01:50;43.85;;;22.83;;
10309;SDS011;5200;43.236;27.986;2023-03-05T14:04:19;34.00;;;20.08;;
10309;SDS011;5200;43.236;27.986;2023-03-05T14:06:50;44.35;;;24.58;;
10309;SDS011;5200;43.236;27.986;2023-03-05T14:09:21;50.53;;;24.08;;
10309;SDS011;5200;43.236;27.986;2023-03-05T14:12:00;42.60;;;22.33;;
10309;SDS011;5200;43.236;27.986;2023-03-05T14:14:28;57.47;;;26.20;;
10309;SDS011;5200;43.236;27.986;2023-03-05T14:20:13;43.10;;;21.48;;
10309;SDS011;5200;43.236;27.986;2023-03-05T14:22:46;54.28;;;26.27;;
10309;SDS011;5200;43.236;27.986;2023-03-05T14:25:24;48.33;;;26.60;;
10309;SDS011;5200;43.236;27.986;2023-03-05T14:27:53;48.33;;;22.67;;
10309;SDS011;5200;43.236;27.986;2023-03-05T14:30:21;44.78;;;23.23;;
10309;SDS011;5200;43.236;27.986;2023-03-05T14:32:52;48.90;;;24.40;;
10309;SDS011;5200;43.236;27.986;2023-03-05T14:35:21;44.30;;;22.10;;
10309;SDS011;5200;43.236;27.986;2023-03-05T14:37:50;50.30;;;24.38;;
10309;SDS011;5200;43.236;27.986;2023-03-05T14:40:19;50.33;;;24.90;;
10309;SDS011;5200;43.236;27.986;2023-03-05T14:42:49;48.35;;;24.25;;
10309;SDS011;5200;43.236;27.986;2023-03-05T14:45:19;39.72;;;21.75;;
10309;SDS011;5200;43.236;27.986;2023-03-05T14:47:48;40.08;;;21.52;;
10309;SDS011;5200;43.236;27.986;2023-03-05T14:50:17;45.63;;;23.10;;
10309;SDS011;5200;43.236;27.986;2023-03-05T14:52:46;37.42;;;20.63;;
10309;SDS011;5200;43.236;27.986;2023-03-05T14:55:15;45.05;;;23.83;;
10309;SDS011;5200;43.236;27.986;2023-03-05T14:57:44;55.08;;;26.90;;